createdAt,value
2022-08-02T00:00:14.007Z,44.90
2022-08-02T00:01:14.168Z,44.64
2022-08-02T00:02:14.055Z,48.90
2022-08-02T00:03:14.016Z,48.72
2022-08-02T00:04:13.959Z,44.15
2022-08-02T00:05:14.760Z,44.02
2022-08-02T00:06:13.976Z,44.21
2022-08-02T00:07:13.965Z,49.45
2022-08-02T00:08:14.124Z,49.17
2022-08-02T00:09:13.949Z,51.79
2022-08-02T00:10:13.934Z,50.50
2022-08-02T00:11:13.948Z,46.59
2022-08-02T00:12:14.115Z,47.63
2022-08-02T00:13:13.913Z,49.62
2022-08-02T00:14:13.889Z,54.53
2022-08-02T00:15:16.090Z,53.65
2022-08-02T00:16:16.744Z,44.56
2022-08-02T00:17:13.913Z,44.66
2022-08-02T00:18:13.907Z,46.65
2022-08-02T00:19:13.865Z,47.58
2022-08-02T00:20:13.862Z,44.38
2022-08-02T00:21:13.974Z,52.00
2022-08-02T00:22:14.127Z,44.27
2022-08-02T00:23:13.872Z,45.95
2022-08-02T00:24:29.030Z,53.06
2022-08-02T00:25:14.814Z,44.60
2022-08-02T00:26:13.851Z,50.24
2022-08-02T00:27:13.940Z,54.43
2022-08-02T00:28:13.847Z,45.26
2022-08-02T00:29:13.792Z,48.53
2022-08-02T00:30:13.784Z,48.80
2022-08-02T00:31:13.819Z,43.99
2022-08-02T00:32:13.886Z,43.67
2022-08-02T00:33:13.769Z,44.37
2022-08-02T00:34:28.514Z,56.74
2022-08-02T00:35:14.808Z,48.33
2022-08-02T00:36:13.728Z,43.89
2022-08-02T00:37:13.733Z,49.31
2022-08-02T00:38:13.722Z,44.17
2022-08-02T00:39:34.080Z,44.19
2022-08-02T00:40:14.687Z,47.48
2022-08-02T00:41:13.692Z,56.09
2022-08-02T00:42:14.164Z,48.57
2022-08-02T00:43:13.703Z,44.38
2022-08-02T00:44:13.690Z,44.04
2022-08-02T00:45:13.704Z,44.03
2022-08-02T00:46:13.675Z,49.18
2022-08-02T00:47:19.267Z,44.14
2022-08-02T00:48:14.651Z,50.70
2022-08-02T00:49:13.677Z,44.17
2022-08-02T00:50:13.647Z,44.14
2022-08-02T00:51:13.618Z,53.33
2022-08-02T00:52:13.958Z,50.88
2022-08-02T00:53:13.594Z,44.91
2022-08-02T00:54:13.584Z,43.99
2022-08-02T00:55:13.649Z,44.19
2022-08-02T00:56:14.265Z,48.05
2022-08-02T00:57:13.564Z,51.45
2022-08-02T00:58:13.694Z,44.57
2022-08-02T00:59:13.559Z,49.46
2022-08-02T01:00:13.577Z,53.94
2022-08-02T01:01:13.574Z,48.22
2022-08-02T01:02:14.040Z,50.29
2022-08-02T01:03:13.619Z,52.84
2022-08-02T01:04:13.525Z,44.75
2022-08-02T01:05:13.528Z,59.48
2022-08-02T01:06:13.535Z,54.41
2022-08-02T01:07:14.253Z,45.70
2022-08-02T01:08:14.509Z,47.30
2022-08-02T01:09:13.476Z,53.79
2022-08-02T01:10:14.263Z,61.76
2022-08-02T01:11:13.461Z,49.19
2022-08-02T01:12:14.029Z,50.12
2022-08-02T01:13:13.551Z,44.08
2022-08-02T01:14:13.441Z,44.16
2022-08-02T01:15:13.638Z,48.92
2022-08-02T01:16:13.453Z,53.85
2022-08-02T01:17:13.432Z,45.28
2022-08-02T01:18:13.454Z,44.08
2022-08-02T01:19:16.151Z,45.20
2022-08-02T01:20:13.427Z,44.14
2022-08-02T01:21:13.373Z,50.43
2022-08-02T01:22:13.714Z,50.75
2022-08-02T01:23:13.385Z,44.21
2022-08-02T01:24:13.359Z,48.45
2022-08-02T01:25:13.374Z,43.99
2022-08-02T01:26:13.363Z,44.01
2022-08-02T01:27:13.364Z,49.54
2022-08-02T01:28:13.378Z,44.16
2022-08-02T01:29:13.336Z,50.29
2022-08-02T01:30:13.329Z,49.36
2022-08-02T01:31:13.304Z,44.37
2022-08-02T01:32:13.578Z,44.46
2022-08-02T01:33:13.292Z,44.40
2022-08-02T01:34:14.261Z,44.89
2022-08-02T01:35:13.326Z,44.77
2022-08-02T01:36:13.279Z,44.19
2022-08-02T01:37:13.264Z,44.99
2022-08-02T01:38:13.877Z,44.60
2022-08-02T01:39:26.846Z,43.96
2022-08-02T01:40:14.256Z,43.80
2022-08-02T01:41:13.249Z,43.94
2022-08-02T01:42:13.827Z,48.88
2022-08-02T01:43:13.208Z,43.78
2022-08-02T01:44:13.908Z,43.85
2022-08-02T02:03:22.328Z,43.91
2022-08-02T02:04:22.340Z,53.04
2022-08-02T02:05:22.297Z,45.27
2022-08-02T02:06:22.294Z,43.77
2022-08-02T02:07:22.299Z,52.98
2022-08-02T02:08:27.535Z,50.26
2022-08-02T02:09:23.389Z,55.65
2022-08-02T02:10:23.399Z,50.06
2022-08-02T02:12:13.152Z,43.82
2022-08-02T02:12:24.384Z,48.87
2022-08-02T02:13:55.317Z,62.82
2022-08-02T02:14:24.045Z,44.90
2022-08-02T02:15:23.384Z,44.28
2022-08-02T02:16:23.356Z,43.93
2022-08-02T02:18:10.428Z,43.95
2022-08-02T02:18:24.385Z,43.99
2022-08-02T02:19:23.420Z,45.17
2022-08-02T02:20:23.450Z,49.99
2022-08-02T02:21:23.300Z,52.29
2022-08-02T02:22:23.316Z,54.32
2022-08-02T02:23:25.745Z,48.52
2022-08-02T02:24:23.272Z,58.80
2022-08-02T02:25:24.966Z,44.84
2022-08-02T02:26:31.411Z,44.21
2022-08-02T02:27:24.278Z,56.61
2022-08-02T02:28:23.269Z,49.48
2022-08-02T02:29:23.308Z,59.10
2022-08-02T02:30:23.290Z,53.46
2022-08-02T02:31:23.224Z,53.22
2022-08-02T02:32:23.210Z,49.69
2022-08-02T02:33:27.688Z,46.23
2022-08-02T02:34:25.190Z,44.45
2022-08-02T02:35:23.264Z,59.09
2022-08-02T02:36:23.222Z,54.88
2022-08-02T02:37:24.184Z,49.70
2022-08-02T02:38:23.245Z,47.95
2022-08-02T02:39:23.175Z,59.96
2022-08-02T02:40:23.161Z,44.77
2022-08-02T02:41:23.232Z,54.77
2022-08-02T02:42:23.148Z,44.49
2022-08-02T02:43:23.202Z,44.46
2022-08-02T02:44:23.146Z,55.26
2022-08-02T02:45:23.123Z,58.37
2022-08-02T02:46:23.102Z,49.62
2022-08-02T02:47:23.106Z,50.34
2022-08-02T02:48:24.082Z,56.28
2022-08-02T02:49:23.211Z,55.20
2022-08-02T02:50:23.124Z,51.77
2022-08-02T02:51:23.061Z,55.97
2022-08-02T02:52:23.067Z,52.94
2022-08-02T02:53:23.094Z,45.72
2022-08-02T02:54:29.938Z,46.20
2022-08-02T02:55:24.079Z,57.93
2022-08-02T02:56:23.032Z,55.42
2022-08-02T02:57:23.034Z,47.02
2022-08-02T02:58:28.994Z,50.83
2022-08-02T02:59:24.920Z,61.67
2022-08-02T03:00:23.002Z,57.29
2022-08-02T03:01:55.837Z,49.87
2022-08-02T03:02:23.990Z,57.72
2022-08-02T03:03:22.988Z,54.74
2022-08-02T03:04:23.014Z,54.39
2022-08-02T03:05:22.968Z,57.48
2022-08-02T03:06:23.652Z,54.86
2022-08-02T03:07:22.957Z,57.09
2022-08-02T03:08:22.931Z,58.88
2022-08-02T03:09:22.943Z,56.41
2022-08-02T03:10:23.603Z,54.30
2022-08-02T03:11:24.474Z,55.22
2022-08-02T03:12:30.209Z,57.89
2022-08-02T03:13:24.474Z,57.65
2022-08-02T03:14:23.896Z,58.52
2022-08-02T03:15:22.894Z,56.03
2022-08-02T03:16:23.585Z,52.54
2022-08-02T03:17:23.112Z,54.04
2022-08-02T03:18:23.547Z,53.89
2022-08-02T03:19:22.866Z,55.79
2022-08-02T03:20:24.503Z,54.86
2022-08-02T03:21:23.430Z,55.20
2022-08-02T03:22:23.586Z,45.25
2022-08-02T03:23:22.823Z,46.19
2022-08-02T03:24:27.963Z,63.46
2022-08-02T03:25:23.795Z,58.37
2022-08-02T03:26:22.789Z,55.98
2022-08-02T03:27:22.868Z,57.47
2022-08-02T03:28:22.918Z,59.19
2022-08-02T03:29:22.777Z,55.07
2022-08-02T03:30:22.784Z,61.30
2022-08-02T03:31:22.756Z,64.06
2022-08-02T03:32:22.838Z,65.21
2022-08-02T03:33:22.763Z,64.95
2022-08-02T03:34:22.789Z,62.28
2022-08-02T03:35:24.581Z,61.63
2022-08-02T03:36:23.712Z,61.59
2022-08-02T03:37:22.709Z,60.11
2022-08-02T03:38:22.758Z,54.24
2022-08-02T03:39:23.675Z,64.58
2022-08-02T03:40:22.689Z,66.25
2022-08-02T03:41:22.682Z,60.49
2022-08-02T03:42:22.705Z,64.43
2022-08-02T03:43:22.677Z,66.76
2022-08-02T03:44:22.659Z,58.65
2022-08-02T03:45:22.650Z,66.64
2022-08-02T04:02:38.637Z,68.84
2022-08-02T04:03:38.782Z,52.51
2022-08-02T04:04:38.738Z,59.09
2022-08-02T04:06:00.834Z,68.23
2022-08-02T04:06:39.871Z,69.44
2022-08-02T04:08:32.860Z,58.37
2022-08-02T04:08:39.710Z,57.15
2022-08-02T04:09:39.387Z,63.58
2022-08-02T04:10:38.712Z,67.27
2022-08-02T04:11:38.698Z,54.34
2022-08-02T04:12:38.812Z,62.53
2022-08-02T04:13:38.668Z,59.87
2022-08-02T04:14:38.682Z,53.24
2022-08-02T04:15:38.669Z,63.68
2022-08-02T04:16:38.793Z,59.14
2022-08-02T04:17:38.650Z,63.62
2022-08-02T04:18:38.653Z,60.28
2022-08-02T04:19:38.632Z,58.52
2022-08-02T04:20:38.625Z,58.18
2022-08-02T04:21:48.969Z,63.46
2022-08-02T04:22:39.623Z,67.83
2022-08-02T04:23:38.619Z,63.63
2022-08-02T04:24:38.592Z,63.07
2022-08-02T04:25:40.570Z,59.54
2022-08-02T04:26:38.722Z,64.97
2022-08-02T04:28:15.095Z,68.32
2022-08-02T04:28:39.594Z,68.34
2022-08-02T04:29:38.578Z,65.43
2022-08-02T04:30:38.586Z,65.53
2022-08-02T04:31:38.533Z,67.41
2022-08-02T04:32:38.578Z,64.40
2022-08-02T04:33:38.532Z,70.93
2022-08-02T04:34:38.520Z,69.42
2022-08-02T04:35:38.518Z,65.29
2022-08-02T04:36:38.503Z,69.02
2022-08-02T04:37:38.653Z,68.13
2022-08-02T04:38:39.537Z,66.18
2022-08-02T04:39:38.480Z,68.01
2022-08-02T04:40:38.465Z,66.06
2022-08-02T04:41:41.043Z,61.88
2022-08-02T04:42:39.457Z,67.62
2022-08-02T04:43:38.485Z,61.58
2022-08-02T04:44:38.446Z,66.19
2022-08-02T04:45:38.427Z,64.19
2022-08-02T04:46:39.562Z,60.90
2022-08-02T04:48:02.053Z,67.49
2022-08-02T04:48:40.429Z,70.97
2022-08-02T04:49:38.499Z,64.27
2022-08-02T04:50:38.387Z,65.67
2022-08-02T04:51:38.939Z,61.60
2022-08-02T04:52:41.653Z,65.03
2022-08-02T04:53:39.359Z,68.75
2022-08-02T04:54:38.384Z,67.33
2022-08-02T04:55:38.358Z,66.20
2022-08-02T04:56:39.899Z,61.17
2022-08-02T04:57:38.327Z,59.58
2022-08-02T04:58:40.896Z,64.63
2022-08-02T04:59:39.331Z,64.08
2022-08-02T05:00:38.377Z,66.00
2022-08-02T05:01:38.331Z,63.92
2022-08-02T05:02:38.296Z,66.98
2022-08-02T05:03:38.286Z,65.24
2022-08-02T05:04:38.308Z,72.67
2022-08-02T05:05:38.277Z,65.88
2022-08-02T05:06:38.328Z,63.97
2022-08-02T05:07:38.251Z,68.42
2022-08-02T05:08:38.358Z,60.08
2022-08-02T05:09:38.253Z,62.95
2022-08-02T05:10:38.235Z,66.42
2022-08-02T05:11:38.326Z,71.21
2022-08-02T05:12:38.229Z,65.27
2022-08-02T05:13:57.509Z,65.90
2022-08-02T05:14:39.199Z,69.06
2022-08-02T05:15:38.182Z,62.42
2022-08-02T05:16:38.204Z,63.34
2022-08-02T05:17:38.171Z,71.71
2022-08-02T05:18:38.159Z,58.73
2022-08-02T05:19:38.153Z,64.42
2022-08-02T05:20:38.164Z,68.30
2022-08-02T05:21:38.912Z,61.44
2022-08-02T05:22:38.132Z,62.86
2022-08-02T05:23:38.147Z,69.24
2022-08-02T05:24:38.788Z,70.27
2022-08-02T05:25:38.791Z,69.92
2022-08-02T05:26:38.147Z,63.76
2022-08-02T05:27:38.140Z,61.61
2022-08-02T05:28:38.098Z,66.55
2022-08-02T05:29:38.078Z,59.90
2022-08-02T05:30:38.076Z,68.46
2022-08-02T05:31:38.151Z,72.98
2022-08-02T05:32:38.055Z,52.54
2022-08-02T05:33:38.081Z,67.71
2022-08-02T05:34:38.038Z,62.48
2022-08-02T05:35:38.033Z,63.52
2022-08-02T05:36:38.059Z,67.62
2022-08-02T05:37:38.188Z,67.80
2022-08-02T05:38:38.113Z,63.12
2022-08-02T05:39:38.025Z,62.85
2022-08-02T05:40:40.763Z,65.73
2022-08-02T05:41:39.009Z,66.33
2022-08-02T05:42:37.965Z,68.50
2022-08-02T05:43:37.965Z,66.82
2022-08-02T05:44:37.972Z,63.38
2022-08-02T05:45:38.006Z,64.21
2022-08-02T05:46:37.939Z,69.30
2022-08-02T05:47:37.952Z,63.80
2022-08-02T05:48:37.924Z,71.37
2022-08-02T05:49:37.989Z,67.31
2022-08-02T05:50:37.928Z,67.40
2022-08-02T05:51:37.897Z,64.57
2022-08-02T05:52:37.895Z,66.08
2022-08-02T05:53:37.923Z,64.37
2022-08-02T05:54:39.532Z,60.91
2022-08-02T05:55:38.884Z,66.15
2022-08-02T05:56:37.889Z,66.70
2022-08-02T05:57:43.561Z,66.49
2022-08-02T05:58:38.873Z,65.87
2022-08-02T05:59:37.831Z,64.49
2022-08-02T06:00:37.863Z,67.97
2022-08-02T06:01:38.545Z,66.56
2022-08-02T06:02:37.840Z,65.69
2022-08-02T06:03:37.806Z,61.64
2022-08-02T06:04:37.803Z,66.78
2022-08-02T06:05:37.794Z,64.78
2022-08-02T06:06:38.308Z,64.31
2022-08-02T06:07:37.810Z,65.61
2022-08-02T06:08:37.764Z,60.00
2022-08-02T06:09:37.767Z,58.82
2022-08-02T06:10:38.303Z,70.89
2022-08-02T06:11:37.731Z,62.70
2022-08-02T06:12:37.833Z,65.13
2022-08-02T06:13:37.732Z,66.18
2022-08-02T06:14:37.737Z,64.82
2022-08-02T06:15:38.899Z,63.23
2022-08-02T06:16:42.515Z,59.73
2022-08-02T06:17:41.873Z,66.72
2022-08-02T06:18:39.330Z,61.89
2022-08-02T06:19:52.439Z,64.97
2022-08-02T06:20:38.701Z,59.90
2022-08-02T06:22:34.751Z,64.66
2022-08-02T06:22:38.698Z,65.80
2022-08-02T06:23:37.859Z,59.92
2022-08-02T06:24:37.653Z,60.80
2022-08-02T06:25:48.135Z,59.80
2022-08-02T06:26:38.632Z,70.77
2022-08-02T06:27:37.628Z,63.45
2022-08-02T06:28:37.626Z,63.91
2022-08-02T06:29:39.162Z,62.80
2022-08-02T06:30:38.597Z,67.10
2022-08-02T06:31:37.606Z,63.82
2022-08-02T06:32:37.603Z,62.58
2022-08-02T06:33:37.615Z,67.32
2022-08-02T06:34:37.577Z,54.64
2022-08-02T06:35:38.323Z,59.82
2022-08-02T06:36:38.574Z,62.54
2022-08-02T06:37:37.640Z,65.28
2022-08-02T06:38:37.599Z,58.17
2022-08-02T06:39:38.440Z,65.38
2022-08-02T06:40:37.530Z,67.23
2022-08-02T06:41:37.526Z,62.34
2022-08-02T06:42:38.468Z,67.20
2022-08-02T06:43:37.608Z,65.97
2022-08-02T06:44:55.654Z,65.52
2022-08-02T06:45:39.496Z,69.54
2022-08-02T06:47:09.632Z,64.86
2022-08-02T06:47:38.479Z,67.64
2022-08-02T06:48:37.512Z,63.16
2022-08-02T06:49:52.326Z,67.14
2022-08-02T06:50:39.313Z,61.60
2022-08-02T06:51:37.485Z,69.99
2022-08-02T06:52:37.434Z,59.60
2022-08-02T06:53:38.320Z,64.48
2022-08-02T06:54:37.428Z,65.59
2022-08-02T06:55:43.556Z,60.67
2022-08-02T06:56:38.437Z,57.88
2022-08-02T06:57:37.521Z,63.30
2022-08-02T06:58:37.393Z,59.69
2022-08-02T06:59:37.397Z,66.04
2022-08-02T07:00:37.396Z,66.80
2022-08-02T07:01:38.961Z,64.85
2022-08-02T07:02:37.397Z,66.46
2022-08-02T07:03:37.394Z,62.44
2022-08-02T07:04:37.353Z,68.85
2022-08-02T07:05:37.354Z,61.01
2022-08-02T07:06:37.512Z,62.31
2022-08-02T07:07:37.361Z,68.10
2022-08-02T07:08:37.333Z,63.47
2022-08-02T07:09:37.317Z,58.95
2022-08-02T07:10:37.314Z,63.97
2022-08-02T07:11:37.330Z,62.28
2022-08-02T07:12:37.327Z,63.92
2022-08-02T07:13:39.811Z,63.89
2022-08-02T07:14:38.288Z,59.97
2022-08-02T07:15:37.313Z,64.41
2022-08-02T07:16:37.303Z,66.18
2022-08-02T07:17:37.297Z,65.92
2022-08-02T07:18:37.255Z,55.01
2022-08-02T07:19:37.839Z,64.79
2022-08-02T07:20:37.244Z,61.24
2022-08-02T07:21:55.959Z,62.76
2022-08-02T07:22:38.266Z,63.51
2022-08-02T07:23:37.293Z,65.68
2022-08-02T07:24:37.223Z,61.67
2022-08-02T07:26:04.080Z,62.62
2022-08-02T07:26:55.182Z,62.65
2022-08-02T07:27:39.294Z,51.59
2022-08-02T07:28:37.205Z,66.91
2022-08-02T07:29:45.003Z,65.31
2022-08-02T07:30:38.244Z,60.76
2022-08-02T07:31:37.185Z,65.49
2022-08-02T07:32:37.177Z,62.73
2022-08-02T07:33:40.089Z,52.52
2022-08-02T07:34:37.169Z,62.85
2022-08-02T07:35:37.171Z,58.95
2022-08-02T07:36:37.143Z,66.32
2022-08-02T07:37:54.765Z,63.93
2022-08-02T07:38:38.259Z,65.09
2022-08-02T07:39:37.128Z,63.19
2022-08-02T07:40:38.125Z,62.37
2022-08-02T07:41:37.109Z,67.33
2022-08-02T07:42:37.087Z,59.68
2022-08-02T07:43:37.844Z,62.84
2022-08-02T07:44:37.070Z,62.94
2022-08-02T07:45:45.658Z,62.48
2022-08-02T07:46:38.082Z,64.02
2022-08-02T07:47:37.072Z,57.87
2022-08-02T07:48:37.195Z,65.12
2022-08-02T07:49:37.076Z,62.82
2022-08-02T07:50:37.083Z,66.88
2022-08-02T07:51:37.028Z,60.54
2022-08-02T07:52:37.022Z,61.05
2022-08-02T07:53:51.043Z,57.96
2022-08-02T07:54:38.016Z,67.42
2022-08-02T07:55:40.416Z,63.76
2022-08-02T07:56:37.038Z,49.60
2022-08-02T07:57:37.005Z,64.53
2022-08-02T07:58:36.984Z,63.34
2022-08-02T07:59:36.973Z,65.25
2022-08-02T08:00:36.977Z,67.56
2022-08-02T08:01:37.899Z,68.35
2022-08-02T08:02:37.957Z,63.67
2022-08-02T08:03:37.959Z,63.22
2022-08-02T08:04:36.977Z,54.81
2022-08-02T08:05:36.973Z,65.91
2022-08-02T08:06:36.963Z,64.97
2022-08-02T08:07:36.944Z,63.82
2022-08-02T08:08:36.938Z,59.62
2022-08-02T08:09:36.909Z,67.61
2022-08-02T08:10:36.981Z,62.76
2022-08-02T08:11:36.907Z,62.84
2022-08-02T08:12:36.918Z,64.75
2022-08-02T08:14:12.139Z,65.87
2022-08-02T08:14:37.902Z,71.92
2022-08-02T08:15:36.877Z,61.19
2022-08-02T08:16:36.885Z,63.99
2022-08-02T08:17:36.899Z,56.57
2022-08-02T08:18:36.867Z,62.11
2022-08-02T08:19:50.977Z,66.23
2022-08-02T08:20:37.868Z,65.59
2022-08-02T08:21:36.875Z,67.44
2022-08-02T08:22:36.854Z,67.34
2022-08-02T08:23:36.810Z,60.67
2022-08-02T08:24:36.837Z,59.13
2022-08-02T08:25:39.681Z,62.65
2022-08-02T08:26:36.793Z,66.76
2022-08-02T08:27:36.833Z,66.02
2022-08-02T08:28:36.908Z,59.61
2022-08-02T08:29:36.855Z,57.88
2022-08-02T08:30:37.781Z,61.05
2022-08-02T08:31:36.762Z,60.02
2022-08-02T08:32:36.793Z,65.76
2022-08-02T08:33:36.760Z,57.32
2022-08-02T08:34:36.758Z,59.19
2022-08-02T08:35:36.743Z,65.54
2022-08-02T08:36:36.830Z,63.66
2022-08-02T08:37:36.742Z,64.92
2022-08-02T08:38:36.714Z,63.34
2022-08-02T08:39:36.710Z,63.44
2022-08-02T08:40:37.721Z,63.36
2022-08-02T08:41:36.684Z,65.73
2022-08-02T08:42:36.681Z,56.97
2022-08-02T08:43:36.667Z,68.89
2022-08-02T08:44:36.683Z,62.05
2022-08-02T08:45:36.737Z,67.46
2022-08-02T08:46:39.181Z,64.20
2022-08-02T08:47:36.664Z,58.07
2022-08-02T08:48:36.644Z,60.93
2022-08-02T08:49:36.634Z,62.13
2022-08-02T08:50:36.658Z,64.24
2022-08-02T08:51:36.629Z,59.64
2022-08-02T08:52:36.625Z,63.40
2022-08-02T08:53:37.108Z,63.48
2022-08-02T08:54:36.624Z,64.49
2022-08-02T08:55:36.600Z,63.06
2022-08-02T08:56:36.645Z,64.08
2022-08-02T08:57:37.479Z,63.27
2022-08-02T08:58:36.608Z,61.27
2022-08-02T08:59:39.208Z,59.50
2022-08-02T09:00:36.618Z,61.09
2022-08-02T09:01:50.165Z,60.83
2022-08-02T09:02:37.557Z,52.74
2022-08-02T09:03:36.554Z,59.12
2022-08-02T09:04:36.538Z,65.77
2022-08-02T09:05:37.335Z,58.27
2022-08-02T09:06:36.524Z,65.19
2022-08-02T09:07:36.507Z,52.82
2022-08-02T09:08:36.552Z,60.91
2022-08-02T09:09:36.503Z,66.89
2022-08-02T09:10:36.531Z,62.22
2022-08-02T09:11:36.490Z,63.80
2022-08-02T09:12:36.495Z,63.55
2022-08-02T09:13:45.372Z,66.59
2022-08-02T09:14:37.485Z,64.89
2022-08-02T09:15:36.467Z,63.70
2022-08-02T09:16:37.532Z,61.24
2022-08-02T09:17:36.438Z,57.06
2022-08-02T09:18:37.486Z,57.75
2022-08-02T09:19:37.516Z,61.77
2022-08-02T09:20:36.443Z,60.97
2022-08-02T09:21:36.425Z,61.80
2022-08-02T09:22:37.058Z,59.53
2022-08-02T09:23:36.436Z,64.25
2022-08-02T09:24:36.436Z,60.08
2022-08-02T09:25:36.391Z,65.92
2022-08-02T09:26:36.380Z,62.64
2022-08-02T09:27:36.378Z,59.65
2022-08-02T09:28:36.388Z,67.67
2022-08-02T09:29:48.633Z,67.80
2022-08-02T09:30:38.356Z,63.98
2022-08-02T09:31:36.370Z,61.38
2022-08-02T09:32:36.347Z,62.36
2022-08-02T09:33:36.337Z,63.02
2022-08-02T09:34:36.352Z,62.16
2022-08-02T09:36:07.270Z,59.86
2022-08-02T09:36:37.338Z,62.76
2022-08-02T09:37:36.319Z,60.86
2022-08-02T09:38:36.315Z,61.75
2022-08-02T09:39:36.317Z,64.55
2022-08-02T09:40:37.340Z,60.35
2022-08-02T09:41:36.297Z,62.88
2022-08-02T09:42:36.284Z,59.34
2022-08-02T09:43:36.284Z,59.84
2022-08-02T09:44:36.293Z,60.77
2022-08-02T09:45:36.266Z,64.91
2022-08-02T09:46:36.288Z,62.91
2022-08-02T09:47:37.356Z,61.20
2022-08-02T09:48:36.233Z,58.21
2022-08-02T09:49:36.320Z,62.23
2022-08-02T09:50:36.243Z,60.69
2022-08-02T09:51:36.239Z,50.41
2022-08-02T09:52:43.237Z,67.08
2022-08-02T09:53:37.223Z,61.39
2022-08-02T09:54:36.225Z,62.87
2022-08-02T09:55:36.211Z,63.74
2022-08-02T09:56:36.192Z,64.74
2022-08-02T09:57:36.227Z,61.78
2022-08-02T09:58:37.518Z,62.09
2022-08-02T09:59:36.174Z,58.21
2022-08-02T10:00:51.853Z,63.11
2022-08-02T10:01:39.001Z,59.27
2022-08-02T10:02:36.205Z,57.91
2022-08-02T10:03:37.378Z,67.04
2022-08-02T10:04:52.063Z,62.54
2022-08-02T10:05:42.758Z,67.30
2022-08-02T10:06:37.181Z,55.88
2022-08-02T10:07:36.129Z,59.85
2022-08-02T10:08:36.112Z,61.11
2022-08-02T10:09:40.148Z,62.78
2022-08-02T10:10:37.093Z,66.55
2022-08-02T10:11:36.089Z,63.89
2022-08-02T10:12:36.101Z,65.47
2022-08-02T10:13:36.085Z,55.82
2022-08-02T10:14:36.077Z,63.37
2022-08-02T10:15:36.051Z,64.68
2022-08-02T10:16:36.047Z,62.04
2022-08-02T10:17:36.049Z,63.33
2022-08-02T10:18:39.533Z,61.36
2022-08-02T10:20:00.080Z,58.81
2022-08-02T10:20:38.386Z,62.43
2022-08-02T10:21:36.026Z,55.30
2022-08-02T10:22:36.028Z,65.34
2022-08-02T10:23:36.021Z,53.98
2022-08-02T10:24:36.040Z,63.66
2022-08-02T10:25:35.989Z,59.83
2022-08-02T10:26:36.018Z,60.02
2022-08-02T10:28:02.613Z,62.73
2022-08-02T10:28:37.977Z,63.58
2022-08-02T10:29:43.960Z,59.72
2022-08-02T10:30:36.973Z,61.42
2022-08-02T10:31:35.947Z,61.18
2022-08-02T10:32:35.934Z,57.96
2022-08-02T10:33:35.938Z,58.93
2022-08-02T10:34:35.922Z,64.83
2022-08-02T10:35:35.926Z,63.78
2022-08-02T10:36:35.911Z,58.57
2022-08-02T10:37:35.931Z,65.01
2022-08-02T10:38:35.943Z,65.11
2022-08-02T10:39:35.921Z,62.76
2022-08-02T10:40:35.964Z,63.13
2022-08-02T10:41:35.889Z,59.57
2022-08-02T10:42:35.865Z,61.46
2022-08-02T10:43:35.877Z,60.18
2022-08-02T10:44:35.850Z,61.73
2022-08-02T10:45:35.867Z,58.96
2022-08-02T10:46:35.864Z,62.22
2022-08-02T10:47:35.855Z,62.67
2022-08-02T10:48:35.853Z,66.22
2022-08-02T10:49:39.584Z,63.05
2022-08-02T10:50:36.846Z,61.44
2022-08-02T10:51:35.865Z,63.24
2022-08-02T10:52:35.806Z,59.67
2022-08-02T10:53:35.799Z,68.58
2022-08-02T10:54:35.786Z,63.63
2022-08-02T10:55:35.776Z,66.69
2022-08-02T10:56:35.782Z,53.05
2022-08-02T10:57:35.775Z,58.03
2022-08-02T10:58:35.755Z,65.48
2022-08-02T10:59:36.297Z,54.34
2022-08-02T11:00:36.531Z,61.49
2022-08-02T11:01:38.269Z,60.80
2022-08-02T11:02:35.780Z,54.79
2022-08-02T11:03:39.304Z,60.67
2022-08-02T11:04:36.524Z,61.35
2022-08-02T11:05:43.283Z,59.51
2022-08-02T11:06:36.719Z,60.52
2022-08-02T11:07:36.529Z,57.06
2022-08-02T11:08:35.707Z,62.36
2022-08-02T11:09:35.771Z,64.20
2022-08-02T11:10:35.668Z,61.41
2022-08-02T11:11:54.258Z,67.86
2022-08-02T11:12:36.723Z,56.37
2022-08-02T11:13:36.538Z,66.24
2022-08-02T11:14:35.675Z,57.75
2022-08-02T11:15:35.675Z,64.81
2022-08-02T11:16:35.633Z,67.33
2022-08-02T11:17:38.245Z,60.81
2022-08-02T11:18:36.647Z,58.38
2022-08-02T11:19:35.620Z,68.09
2022-08-02T11:20:36.614Z,65.42
2022-08-02T11:21:35.636Z,62.27
2022-08-02T11:22:36.535Z,65.49
2022-08-02T11:23:44.219Z,61.07
2022-08-02T11:24:36.594Z,62.05
2022-08-02T11:26:02.145Z,60.20
2022-08-02T11:26:37.559Z,66.74
2022-08-02T11:27:35.627Z,61.67
2022-08-02T11:28:35.556Z,66.90
2022-08-02T11:29:38.410Z,61.73
2022-08-02T11:30:35.570Z,59.60
2022-08-02T11:31:35.542Z,62.74
2022-08-02T11:32:35.548Z,63.08
2022-08-02T11:33:35.530Z,63.96
2022-08-02T11:34:37.320Z,60.78
2022-08-02T11:35:35.527Z,66.20
2022-08-02T11:36:35.557Z,59.40
2022-08-02T11:37:36.068Z,61.35
2022-08-02T11:38:35.493Z,67.76
2022-08-02T11:39:35.503Z,59.35
2022-08-02T11:40:35.627Z,60.02
2022-08-02T11:41:46.284Z,60.63
2022-08-02T11:42:36.483Z,64.96
2022-08-02T11:43:35.444Z,64.22
2022-08-02T11:44:35.448Z,64.15
2022-08-02T11:45:36.458Z,64.74
2022-08-02T11:46:35.455Z,65.39
2022-08-02T11:47:35.434Z,62.56
2022-08-02T11:48:35.477Z,59.44
2022-08-02T11:49:35.559Z,63.63
2022-08-02T11:50:35.416Z,64.88
2022-08-02T11:51:35.400Z,59.75
2022-08-02T11:52:35.429Z,62.35
2022-08-02T11:53:35.402Z,62.55
2022-08-02T11:54:36.392Z,56.33
2022-08-02T11:55:35.397Z,61.85
2022-08-02T11:56:35.378Z,58.22
2022-08-02T11:58:02.825Z,50.98
2022-08-02T11:58:36.391Z,51.96
2022-08-02T11:59:35.381Z,63.70
2022-08-02T12:00:35.334Z,59.08
2022-08-02T12:01:36.866Z,67.02
2022-08-02T12:02:36.342Z,56.65
2022-08-02T12:03:35.392Z,60.78
2022-08-02T12:04:35.305Z,66.00
2022-08-02T12:06:37.326Z,62.92
2022-08-02T12:07:36.206Z,65.29
2022-08-02T12:08:35.311Z,66.28
2022-08-02T12:09:40.626Z,63.70
2022-08-02T12:10:37.293Z,66.70
2022-08-02T12:11:38.745Z,59.99
2022-08-02T12:12:35.275Z,64.33
2022-08-02T12:13:35.295Z,62.43
2022-08-02T12:14:35.254Z,68.16
2022-08-02T12:15:35.290Z,63.32
2022-08-02T12:16:35.237Z,69.51
2022-08-02T12:17:35.237Z,65.68
2022-08-02T12:18:35.243Z,61.80
2022-08-02T12:19:35.227Z,65.83
2022-08-02T12:20:35.248Z,62.09
2022-08-02T12:21:35.231Z,61.81
2022-08-02T12:22:38.847Z,63.25
2022-08-02T12:23:37.208Z,64.41
2022-08-02T12:24:36.188Z,65.84
2022-08-02T12:25:35.588Z,67.01
2022-08-02T12:26:36.188Z,66.42
2022-08-02T12:27:35.219Z,63.88
2022-08-02T12:28:35.159Z,65.54
2022-08-02T12:29:58.045Z,64.04
2022-08-02T12:30:36.137Z,63.15
2022-08-02T12:31:35.130Z,62.18
2022-08-02T12:32:36.177Z,64.85
2022-08-02T12:33:39.131Z,57.07
2022-08-02T12:34:36.162Z,60.95
2022-08-02T12:35:35.101Z,63.91
2022-08-02T12:36:35.111Z,65.04
2022-08-02T12:37:35.105Z,62.30
2022-08-02T12:38:35.106Z,65.35
2022-08-02T12:39:35.140Z,63.34
2022-08-02T12:40:35.125Z,66.36
2022-08-02T12:41:35.088Z,66.87
2022-08-02T12:42:35.105Z,61.77
2022-08-02T12:43:35.097Z,61.43
2022-08-02T12:44:35.078Z,65.14
2022-08-02T12:45:39.181Z,65.15
2022-08-02T12:46:41.940Z,60.73
2022-08-02T12:47:36.303Z,64.98
2022-08-02T12:48:37.332Z,65.62
2022-08-02T12:49:36.119Z,65.94
2022-08-02T12:50:35.032Z,59.91
2022-08-02T12:51:55.561Z,64.12
2022-08-02T12:52:36.024Z,64.78
2022-08-02T12:53:36.014Z,62.74
2022-08-02T12:54:36.088Z,59.87
2022-08-02T12:56:01.308Z,63.25
2022-08-02T12:56:36.021Z,64.87
2022-08-02T12:57:39.367Z,58.33
2022-08-02T12:58:36.980Z,65.56
2022-08-02T12:59:38.404Z,66.18
2022-08-02T13:00:34.952Z,62.32
2022-08-02T13:01:34.994Z,55.98
2022-08-02T13:02:34.984Z,57.93
2022-08-02T13:04:09.109Z,60.98
2022-08-02T13:04:35.930Z,59.53
2022-08-02T13:05:56.529Z,63.12
2022-08-02T13:06:45.104Z,61.55
2022-08-02T13:07:36.906Z,69.02
2022-08-02T13:08:34.970Z,61.72
2022-08-02T13:09:34.909Z,60.76
2022-08-02T13:10:34.910Z,62.63
2022-08-02T13:11:34.915Z,65.48
2022-08-02T13:12:34.926Z,66.05
2022-08-02T13:13:34.883Z,64.32
2022-08-02T13:14:40.413Z,64.52
2022-08-02T13:15:49.687Z,66.94
2022-08-02T13:16:35.907Z,60.85
2022-08-02T13:17:34.821Z,65.77
2022-08-02T13:18:34.832Z,62.81
2022-08-02T13:19:34.864Z,62.59
2022-08-02T13:20:34.814Z,62.63
2022-08-02T13:21:40.988Z,61.33
2022-08-02T13:22:35.809Z,60.26
2022-08-02T13:23:54.070Z,62.29
2022-08-02T13:24:41.023Z,63.83
2022-08-02T13:25:35.778Z,63.84
2022-08-02T13:26:34.764Z,59.19
2022-08-02T13:27:34.793Z,59.06